Aviation Digital Data Service (ADDS)

Output produced by METARs form (1846 UTC 19 August 2019)
found at http://www.aviationweather.gov/metar/data/
 
METAR text: RPLB 191800Z 08003KT 360V110 9000 FEW020 SCT080 26/26 Q1008 NOSIG RMK A2977
Conditions at: RPLB (OLONGAPO/SUBIC , PH) observed 1800 UTC 19 August 2019
Temperature: 26.0°C (79°F)
Dewpoint: 26.0°C (79°F) [RH = 100%]
Pressure (altimeter): 29.76 inches Hg (1008.0 mb)
Winds: from the E (80 degrees) at 3 MPH (3 knots; 1.5 m/s)
Visibility: 6 miles ( 9 km)
Ceiling: at least 12,000 feet AGL
Clouds: few clouds at 2000 feet AGL
scattered clouds at 8000 feet AGL
Weather: no significant weather observed at this time

METAR text: RPLB 191700Z 09005KT 9000 FEW020 SCT080 26/26 Q1008 NOSIG RMK A2977
Conditions at: RPLB (OLONGAPO/SUBIC , PH) observed 1700 UTC 19 August 2019
Temperature: 26.0°C (79°F)
Dewpoint: 26.0°C (79°F) [RH = 100%]
Pressure (altimeter): 29.76 inches Hg (1008.0 mb)
Winds: from the E (90 degrees) at 6 MPH (5 knots; 2.6 m/s)
Visibility: 6 miles ( 9 km)
Ceiling: at least 12,000 feet AGL
Clouds: few clouds at 2000 feet AGL
scattered clouds at 8000 feet AGL
Weather: no significant weather observed at this time

METAR text: RPLB 191600Z VRB02KT 9999 FEW020 SCT080 26/26 Q1009 NOSIG RMK A2980
Conditions at: RPLB (OLONGAPO/SUBIC , PH) observed 1600 UTC 19 August 2019
Temperature: 26.0°C (79°F)
Dewpoint: 26.0°C (79°F) [RH = 100%]
Pressure (altimeter): 29.79 inches Hg (1009.0 mb)
Winds: variable direction winds at 2 MPH (2 knots; 1.0 m/s)
Visibility: 6 or more miles (10+ km)
Ceiling: at least 12,000 feet AGL
Clouds: few clouds at 2000 feet AGL
scattered clouds at 8000 feet AGL
Weather: no significant weather observed at this time

METAR text: RPLB 191500Z 14003KT 110V170 9999 FEW020 SCT080 27/26 Q1010 RESHRA RMK A2983
Conditions at: RPLB (OLONGAPO/SUBIC , PH) observed 1500 UTC 19 August 2019
Temperature: 27.0°C (81°F)
Dewpoint: 26.0°C (79°F) [RH = 94%]
Pressure (altimeter): 29.82 inches Hg (1010.0 mb)
Winds: from the SE (140 degrees) at 3 MPH (3 knots; 1.5 m/s)
Visibility: 6 or more miles (10+ km)
Ceiling: at least 12,000 feet AGL
Clouds: few clouds at 2000 feet AGL
scattered clouds at 8000 feet AGL
Weather: no significant weather observed at this time

METAR text: RPLB 191400Z 21003KT 170V250 9000 -SHRA SCT018 BKN080 27/26 Q1010 RMK A2983
Conditions at: RPLB (OLONGAPO/SUBIC , PH) observed 1400 UTC 19 August 2019
Temperature: 27.0°C (81°F)
Dewpoint: 26.0°C (79°F) [RH = 94%]
Pressure (altimeter): 29.82 inches Hg (1010.0 mb)
Winds: from the SSW (210 degrees) at 3 MPH (3 knots; 1.5 m/s)
Visibility: 6 miles ( 9 km)
Ceiling: 8000 feet AGL
Clouds: scattered clouds at 1800 feet AGL
broken clouds at 8000 feet AGL
Weather: -SHRA  (light rain showers)

METAR text: RPLB 191300Z VRB02KT 9999 FEW020 SCT300 27/26 Q1009 NOSIG RMK A2980
Conditions at: RPLB (OLONGAPO/SUBIC , PH) observed 1300 UTC 19 August 2019
Temperature: 27.0°C (81°F)
Dewpoint: 26.0°C (79°F) [RH = 94%]
Pressure (altimeter): 29.79 inches Hg (1009.0 mb)
Winds: variable direction winds at 2 MPH (2 knots; 1.0 m/s)
Visibility: 6 or more miles (10+ km)
Ceiling: at least 12,000 feet AGL
Clouds: few clouds at 2000 feet AGL
scattered clouds at 30000 feet AGL
Weather: no significant weather observed at this time

METAR text: RPLB 191200Z 19004KT 9999 FEW020 SCT300 28/26 Q1009 NOSIG RMK A2980
Conditions at: RPLB (OLONGAPO/SUBIC , PH) observed 1200 UTC 19 August 2019
Temperature: 28.0°C (82°F)
Dewpoint: 26.0°C (79°F) [RH = 89%]
Pressure (altimeter): 29.79 inches Hg (1009.0 mb)
Winds: from the S (190 degrees) at 5 MPH (4 knots; 2.1 m/s)
Visibility: 6 or more miles (10+ km)
Ceiling: at least 12,000 feet AGL
Clouds: few clouds at 2000 feet AGL
scattered clouds at 30000 feet AGL
Weather: no significant weather observed at this time

METAR text: RPLB 191100Z 19004KT 150V240 9999 SCT018 BKN080 28/26 Q1009 RMK A2980
Conditions at: RPLB (OLONGAPO/SUBIC , PH) observed 1100 UTC 19 August 2019
Temperature: 28.0°C (82°F)
Dewpoint: 26.0°C (79°F) [RH = 89%]
Pressure (altimeter): 29.79 inches Hg (1009.0 mb)
Winds: from the S (190 degrees) at 5 MPH (4 knots; 2.1 m/s)
Visibility: 6 or more miles (10+ km)
Ceiling: 8000 feet AGL
Clouds: scattered clouds at 1800 feet AGL
broken clouds at 8000 feet AGL
Weather: no significant weather observed at this time

METAR text: RPLB 191000Z 26007KT 230V300 9000 -SHRA SCT018 BKN080 28/26 Q1008 RMK A2977
Conditions at: RPLB (OLONGAPO/SUBIC , PH) observed 1000 UTC 19 August 2019
Temperature: 28.0°C (82°F)
Dewpoint: 26.0°C (79°F) [RH = 89%]
Pressure (altimeter): 29.76 inches Hg (1008.0 mb)
Winds: from the W (260 degrees) at 8 MPH (7 knots; 3.6 m/s)
Visibility: 6 miles ( 9 km)
Ceiling: 8000 feet AGL
Clouds: scattered clouds at 1800 feet AGL
broken clouds at 8000 feet AGL
Weather: -SHRA  (light rain showers)

METAR text: RPLB 190900Z 23011KT 9999 FEW018TCU FEW020 BKN300 29/26 Q1007 RMK A2974 TCU NW E
Conditions at: RPLB (OLONGAPO/SUBIC , PH) observed 0900 UTC 19 August 2019
Temperature: 29.0°C (84°F)
Dewpoint: 26.0°C (79°F) [RH = 84%]
Pressure (altimeter): 29.73 inches Hg (1007.0 mb)
Winds: from the SW (230 degrees) at 13 MPH (11 knots; 5.7 m/s)
Visibility: 6 or more miles (10+ km)
Ceiling: 30000 feet AGL
Clouds: few clouds at 1800 feet AGL
few clouds at 2000 feet AGL
broken clouds at 30000 feet AGL
Weather: no significant weather observed at this time

METAR text: RPLB 190800Z 30007KT 9999 FEW018TCU FEW020 BKN300 31/25 Q1007 RMK A2974 TCU NW
Conditions at: RPLB (OLONGAPO/SUBIC , PH) observed 0800 UTC 19 August 2019
Temperature: 31.0°C (88°F)
Dewpoint: 25.0°C (77°F) [RH = 71%]
Pressure (altimeter): 29.73 inches Hg (1007.0 mb)
Winds: from the WNW (300 degrees) at 8 MPH (7 knots; 3.6 m/s)
Visibility: 6 or more miles (10+ km)
Ceiling: 30000 feet AGL
Clouds: few clouds at 1800 feet AGL
few clouds at 2000 feet AGL
broken clouds at 30000 feet AGL
Weather: no significant weather observed at this time

METAR text: RPLB 190700Z 28007KT 240V330 9999 SCT020 BKN300 30/25 Q1008 NOSIG RMK A2977
Conditions at: RPLB (OLONGAPO/SUBIC , PH) observed 0700 UTC 19 August 2019
Temperature: 30.0°C (86°F)
Dewpoint: 25.0°C (77°F) [RH = 75%]
Pressure (altimeter): 29.76 inches Hg (1008.0 mb)
Winds: from the W (280 degrees) at 8 MPH (7 knots; 3.6 m/s)
Visibility: 6 or more miles (10+ km)
Ceiling: 30000 feet AGL
Clouds: scattered clouds at 2000 feet AGL
broken clouds at 30000 feet AGL
Weather: no significant weather observed at this time

METAR text: RPLB 190600Z 23009KT 200V280 9999 FEW018TCU FEW020 BKN300 31/26 Q1008 RMK A2977 TCU W
Conditions at: RPLB (OLONGAPO/SUBIC , PH) observed 0600 UTC 19 August 2019
Temperature: 31.0°C (88°F)
Dewpoint: 26.0°C (79°F) [RH = 75%]
Pressure (altimeter): 29.76 inches Hg (1008.0 mb)
Winds: from the SW (230 degrees) at 10 MPH (9 knots; 4.6 m/s)
Visibility: 6 or more miles (10+ km)
Ceiling: 30000 feet AGL
Clouds: few clouds at 1800 feet AGL
few clouds at 2000 feet AGL
broken clouds at 30000 feet AGL
Weather: no significant weather observed at this time

METAR text: RPLB 190500Z 23011KT 9999 FEW018TCU SCT020 BKN300 30/26 Q1008 NOSIG RMK A2977 TCU NW
Conditions at: RPLB (OLONGAPO/SUBIC , PH) observed 0500 UTC 19 August 2019
Temperature: 30.0°C (86°F)
Dewpoint: 26.0°C (79°F) [RH = 79%]
Pressure (altimeter): 29.76 inches Hg (1008.0 mb)
Winds: from the SW (230 degrees) at 13 MPH (11 knots; 5.7 m/s)
Visibility: 6 or more miles (10+ km)
Ceiling: 30000 feet AGL
Clouds: few clouds at 1800 feet AGL
scattered clouds at 2000 feet AGL
broken clouds at 30000 feet AGL
Weather: no significant weather observed at this time

METAR text: RPLB 190400Z 23012KT 9999 BKN020 31/27 Q1009 NOSIG RMK A2980
Conditions at: RPLB (OLONGAPO/SUBIC , PH) observed 0400 UTC 19 August 2019
Temperature: 31.0°C (88°F)
Dewpoint: 27.0°C (81°F) [RH = 79%]
Pressure (altimeter): 29.79 inches Hg (1009.0 mb)
Winds: from the SW (230 degrees) at 14 MPH (12 knots; 6.2 m/s)
Visibility: 6 or more miles (10+ km)
Ceiling: 2000 feet AGL
Clouds: broken clouds at 2000 feet AGL
Weather: no significant weather observed at this time

METAR text: RPLB 190300Z 23013KT 9000 VCSH FEW018 SCT020 OVC300 30/27 Q1009 NOSIG RMK A2980 VCSH N
Conditions at: RPLB (OLONGAPO/SUBIC , PH) observed 0300 UTC 19 August 2019
Temperature: 30.0°C (86°F)
Dewpoint: 27.0°C (81°F) [RH = 84%]
Pressure (altimeter): 29.79 inches Hg (1009.0 mb)
Winds: from the SW (230 degrees) at 15 MPH (13 knots; 6.7 m/s)
Visibility: 6 miles ( 9 km)
Ceiling: 30000 feet AGL
Clouds: few clouds at 1800 feet AGL
scattered clouds at 2000 feet AGL
overcast cloud deck at 30000 feet AGL
Weather: VCSH  (showers in vicinity)

METAR text: RPLB 190200Z 24008KT 8000 -SHRA SCT018 BKN080 28/26 Q1009 NOSIG RMK A2980
Conditions at: RPLB (OLONGAPO/SUBIC , PH) observed 0200 UTC 19 August 2019
Temperature: 28.0°C (82°F)
Dewpoint: 26.0°C (79°F) [RH = 89%]
Pressure (altimeter): 29.79 inches Hg (1009.0 mb)
Winds: from the WSW (240 degrees) at 9 MPH (8 knots; 4.1 m/s)
Visibility: 5 miles ( 8 km)
Ceiling: 8000 feet AGL
Clouds: scattered clouds at 1800 feet AGL
broken clouds at 8000 feet AGL
Weather: -SHRA  (light rain showers)

METAR text: RPLB 190100Z 24003KT 200V300 7000 -SHRA FEW016TCU SCT018 BKN080 28/26 Q1009 NOSIG RMK A2980 TCU SSW
Conditions at: RPLB (OLONGAPO/SUBIC , PH) observed 0100 UTC 19 August 2019
Temperature: 28.0°C (82°F)
Dewpoint: 26.0°C (79°F) [RH = 89%]
Pressure (altimeter): 29.79 inches Hg (1009.0 mb)
Winds: from the WSW (240 degrees) at 3 MPH (3 knots; 1.5 m/s)
Visibility: 4 miles ( 7 km)
Ceiling: 8000 feet AGL
Clouds: few clouds at 1600 feet AGL
scattered clouds at 1800 feet AGL
broken clouds at 8000 feet AGL
Weather: -SHRA  (light rain showers)

METAR text: RPLB 190000Z VRB02KT 7000 FEW018 BKN300 28/27 Q1009 NOSIG RMK A2980
Conditions at: RPLB (OLONGAPO/SUBIC , PH) observed 0000 UTC 19 August 2019
Temperature: 28.0°C (82°F)
Dewpoint: 27.0°C (81°F) [RH = 94%]
Pressure (altimeter): 29.79 inches Hg (1009.0 mb)
Winds: variable direction winds at 2 MPH (2 knots; 1.0 m/s)
Visibility: 4 miles ( 7 km)
Ceiling: 30000 feet AGL
Clouds: few clouds at 1800 feet AGL
broken clouds at 30000 feet AGL
Weather: no significant weather observed at this time

METAR text: RPLB 182300Z 07003KT 030V100 5000 HZ SCT018 BKN300 26/25 Q1009 NOSIG RMK A2980
Conditions at: RPLB (OLONGAPO/SUBIC , PH) observed 2300 UTC 18 August 2019
Temperature: 26.0°C (79°F)
Dewpoint: 25.0°C (77°F) [RH = 94%]
Pressure (altimeter): 29.79 inches Hg (1009.0 mb)
Winds: from the ENE (70 degrees) at 3 MPH (3 knots; 1.5 m/s)
Visibility: 3 miles ( 5 km)
Ceiling: 30000 feet AGL
Clouds: scattered clouds at 1800 feet AGL
broken clouds at 30000 feet AGL
Weather: HZ  (haze)

METAR text: RPLB 182200Z VRB02KT 4000 HZ SCT018 BKN300 25/25 Q1008 NOSIG RMK A2977
Conditions at: RPLB (OLONGAPO/SUBIC , PH) observed 2200 UTC 18 August 2019
Temperature: 25.0°C (77°F)
Dewpoint: 25.0°C (77°F) [RH = 100%]
Pressure (altimeter): 29.76 inches Hg (1008.0 mb)
Winds: variable direction winds at 2 MPH (2 knots; 1.0 m/s)
Visibility: 2.49 miles (4.01 km)
Ceiling: 30000 feet AGL
Clouds: scattered clouds at 1800 feet AGL
broken clouds at 30000 feet AGL
Weather: HZ  (haze)

METAR text: RPLB 182100Z VRB01KT 9999 FEW018TCU FEW020 25/25 Q1009 NOSIG RMK A2980 TCU SW
Conditions at: RPLB (OLONGAPO/SUBIC , PH) observed 2100 UTC 18 August 2019
Temperature: 25.0°C (77°F)
Dewpoint: 25.0°C (77°F) [RH = 100%]
Pressure (altimeter): 29.79 inches Hg (1009.0 mb)
Winds: variable direction winds at 1 MPH (1 knots; 0.5 m/s)
Visibility: 6 or more miles (10+ km)
Ceiling: at least 12,000 feet AGL
Clouds: few clouds at 1800 feet AGL
few clouds at 2000 feet AGL
Weather: no significant weather observed at this time

METAR text: RPLB 182000Z VRB02KT 9999 FEW020 26/25 Q1009 NOSIG RMK A2980
Conditions at: RPLB (OLONGAPO/SUBIC , PH) observed 2000 UTC 18 August 2019
Temperature: 26.0°C (79°F)
Dewpoint: 25.0°C (77°F) [RH = 94%]
Pressure (altimeter): 29.79 inches Hg (1009.0 mb)
Winds: variable direction winds at 2 MPH (2 knots; 1.0 m/s)
Visibility: 6 or more miles (10+ km)
Ceiling: at least 12,000 feet AGL
Clouds: few clouds at 2000 feet AGL
Weather: no significant weather observed at this time

METAR text: RPLB 181900Z 15003KT 9999 FEW020 26/25 Q1009 NOSIG RMK A2980
Conditions at: RPLB (OLONGAPO/SUBIC , PH) observed 1900 UTC 18 August 2019
Temperature: 26.0°C (79°F)
Dewpoint: 25.0°C (77°F) [RH = 94%]
Pressure (altimeter): 29.79 inches Hg (1009.0 mb)
Winds: from the SSE (150 degrees) at 3 MPH (3 knots; 1.5 m/s)
Visibility: 6 or more miles (10+ km)
Ceiling: at least 12,000 feet AGL
Clouds: few clouds at 2000 feet AGL
Weather: no significant weather observed at this time

METAR text: RPLB 181800Z VRB01KT 9999 SCT020 26/25 Q1009 NOSIG RMK A2980
Conditions at: RPLB (OLONGAPO/SUBIC , PH) observed 1800 UTC 18 August 2019
Temperature: 26.0°C (79°F)
Dewpoint: 25.0°C (77°F) [RH = 94%]
Pressure (altimeter): 29.79 inches Hg (1009.0 mb)
Winds: variable direction winds at 1 MPH (1 knots; 0.5 m/s)
Visibility: 6 or more miles (10+ km)
Ceiling: at least 12,000 feet AGL
Clouds: scattered clouds at 2000 feet AGL
Weather: no significant weather observed at this time

METAR text: RPLB 181700Z 13002KT 9999 FEW020 26/25 Q1010 NOSIG RMK A2983
Conditions at: RPLB (OLONGAPO/SUBIC , PH) observed 1700 UTC 18 August 2019
Temperature: 26.0°C (79°F)
Dewpoint: 25.0°C (77°F) [RH = 94%]
Pressure (altimeter): 29.82 inches Hg (1010.0 mb)
Winds: from the SE (130 degrees) at 2 MPH (2 knots; 1.0 m/s)
Visibility: 6 or more miles (10+ km)
Ceiling: at least 12,000 feet AGL
Clouds: few clouds at 2000 feet AGL
Weather: no significant weather observed at this time

METAR text: RPLB 181600Z VRB02KT 9999 FEW020 26/25 Q1011 NOSIG RMK A2985
Conditions at: RPLB (OLONGAPO/SUBIC , PH) observed 1600 UTC 18 August 2019
Temperature: 26.0°C (79°F)
Dewpoint: 25.0°C (77°F) [RH = 94%]
Pressure (altimeter): 29.85 inches Hg (1011.0 mb)
Winds: variable direction winds at 2 MPH (2 knots; 1.0 m/s)
Visibility: 6 or more miles (10+ km)
Ceiling: at least 12,000 feet AGL
Clouds: few clouds at 2000 feet AGL
Weather: no significant weather observed at this time

METAR text: RPLB 181500Z 00000KT 9999 FEW020 SCT080 26/25 Q1011 NOSIG RMK A2985
Conditions at: RPLB (OLONGAPO/SUBIC , PH) observed 1500 UTC 18 August 2019
Temperature: 26.0°C (79°F)
Dewpoint: 25.0°C (77°F) [RH = 94%]
Pressure (altimeter): 29.85 inches Hg (1011.0 mb)
Winds: calm
Visibility: 6 or more miles (10+ km)
Ceiling: at least 12,000 feet AGL
Clouds: few clouds at 2000 feet AGL
scattered clouds at 8000 feet AGL
Weather: no significant weather observed at this time

METAR text: RPLB 181400Z VRB03KT 9999 FEW020 BKN080 26/25 Q1011 NOSIG RMK A2985
Conditions at: RPLB (OLONGAPO/SUBIC , PH) observed 1400 UTC 18 August 2019
Temperature: 26.0°C (79°F)
Dewpoint: 25.0°C (77°F) [RH = 94%]
Pressure (altimeter): 29.85 inches Hg (1011.0 mb)
Winds: variable direction winds at 3 MPH (3 knots; 1.5 m/s)
Visibility: 6 or more miles (10+ km)
Ceiling: 8000 feet AGL
Clouds: few clouds at 2000 feet AGL
broken clouds at 8000 feet AGL
Weather: no significant weather observed at this time

METAR text: RPLB 181300Z 19003KT 140V210 9999 FEW020 SCT080 26/25 Q1011 NOSIG RMK A2985
Conditions at: RPLB (OLONGAPO/SUBIC , PH) observed 1300 UTC 18 August 2019
Temperature: 26.0°C (79°F)
Dewpoint: 25.0°C (77°F) [RH = 94%]
Pressure (altimeter): 29.85 inches Hg (1011.0 mb)
Winds: from the S (190 degrees) at 3 MPH (3 knots; 1.5 m/s)
Visibility: 6 or more miles (10+ km)
Ceiling: at least 12,000 feet AGL
Clouds: few clouds at 2000 feet AGL
scattered clouds at 8000 feet AGL
Weather: no significant weather observed at this time

METAR text: RPLB 181200Z VRB02KT 9999 FEW020 27/25 Q1011 NOSIG RMK A2985
Conditions at: RPLB (OLONGAPO/SUBIC , PH) observed 1200 UTC 18 August 2019
Temperature: 27.0°C (81°F)
Dewpoint: 25.0°C (77°F) [RH = 89%]
Pressure (altimeter): 29.85 inches Hg (1011.0 mb)
Winds: variable direction winds at 2 MPH (2 knots; 1.0 m/s)
Visibility: 6 or more miles (10+ km)
Ceiling: at least 12,000 feet AGL
Clouds: few clouds at 2000 feet AGL
Weather: no significant weather observed at this time

METAR text: RPLB 181100Z 30008KT 270V340 9000 -SHRA FEW018 SCT080 27/25 Q1010 RMK A2983
Conditions at: RPLB (OLONGAPO/SUBIC , PH) observed 1100 UTC 18 August 2019
Temperature: 27.0°C (81°F)
Dewpoint: 25.0°C (77°F) [RH = 89%]
Pressure (altimeter): 29.82 inches Hg (1010.0 mb)
Winds: from the WNW (300 degrees) at 9 MPH (8 knots; 4.1 m/s)
Visibility: 6 miles ( 9 km)
Ceiling: at least 12,000 feet AGL
Clouds: few clouds at 1800 feet AGL
scattered clouds at 8000 feet AGL
Weather: -SHRA  (light rain showers)

METAR text: RPLB 181000Z 24006KT 210V280 9999 BKN020 29/26 Q1009 NOSIG RMK A2980
Conditions at: RPLB (OLONGAPO/SUBIC , PH) observed 1000 UTC 18 August 2019
Temperature: 29.0°C (84°F)
Dewpoint: 26.0°C (79°F) [RH = 84%]
Pressure (altimeter): 29.79 inches Hg (1009.0 mb)
Winds: from the WSW (240 degrees) at 7 MPH (6 knots; 3.1 m/s)
Visibility: 6 or more miles (10+ km)
Ceiling: 2000 feet AGL
Clouds: broken clouds at 2000 feet AGL
Weather: no significant weather observed at this time

METAR text: RPLB 180900Z 23009KT 9000 FEW018CB FEW020 SCT080 29/26 Q1008 RMK A2977 TCU N
Conditions at: RPLB (OLONGAPO/SUBIC , PH) observed 0900 UTC 18 August 2019
Temperature: 29.0°C (84°F)
Dewpoint: 26.0°C (79°F) [RH = 84%]
Pressure (altimeter): 29.76 inches Hg (1008.0 mb)
Winds: from the SW (230 degrees) at 10 MPH (9 knots; 4.6 m/s)
Visibility: 6 miles ( 9 km)
Ceiling: at least 12,000 feet AGL
Clouds: few clouds at 1800 feet AGL
few clouds at 2000 feet AGL
scattered clouds at 8000 feet AGL
Weather: no significant weather observed at this time

METAR text: RPLB 180800Z 22010KT 190V260 9999 FEW018CB FEW020 SCT080 30/25 Q1009 RMK A2980 CB N
Conditions at: RPLB (OLONGAPO/SUBIC , PH) observed 0800 UTC 18 August 2019
Temperature: 30.0°C (86°F)
Dewpoint: 25.0°C (77°F) [RH = 75%]
Pressure (altimeter): 29.79 inches Hg (1009.0 mb)
Winds: from the SW (220 degrees) at 12 MPH (10 knots; 5.1 m/s)
Visibility: 6 or more miles (10+ km)
Ceiling: at least 12,000 feet AGL
Clouds: few clouds at 1800 feet AGL
few clouds at 2000 feet AGL
scattered clouds at 8000 feet AGL
Weather: no significant weather observed at this time

METAR text: RPLB 180700Z 22009KT 9999 FEW018TCU FEW020 SCT080 30/26 Q1009 RMK A2980 TCU W
Conditions at: RPLB (OLONGAPO/SUBIC , PH) observed 0700 UTC 18 August 2019
Temperature: 30.0°C (86°F)
Dewpoint: 26.0°C (79°F) [RH = 79%]
Pressure (altimeter): 29.79 inches Hg (1009.0 mb)
Winds: from the SW (220 degrees) at 10 MPH (9 knots; 4.6 m/s)
Visibility: 6 or more miles (10+ km)
Ceiling: at least 12,000 feet AGL
Clouds: few clouds at 1800 feet AGL
few clouds at 2000 feet AGL
scattered clouds at 8000 feet AGL
Weather: no significant weather observed at this time

Forecast for: RPLB (OLONGAPO/SUBIC , PH)
Text: TAF RPLB 191700Z 1918/2018 20004KT 9999 FEW020 SCT080 BKN300 TX31/2006Z TN25/1921Z
Forecast period: 1800 UTC 19 August 2019 to 1800 UTC 20 August 2019
Forecast type: FROM: standard forecast or significant change
Winds: from the SSW (200 degrees) at 5 MPH (4 knots; 2.1 m/s)
Visibility: 6 or more miles 10+ km)
Ceiling: 30000 feet AGL
Clouds: few clouds at 2000 feet AGL
scattered clouds at 8000 feet AGL
broken clouds at 30000 feet AGL
Weather: no significant weather forecast for this period
Text: TEMPO 1918/1924 21008KT 7000 -TSRA FEW016CB SCT018 BKN080
Forecast period: 1800 UTC 19 August 2019 to 0000 UTC 20 August 2019
Forecast type: TEMPORARY: The following changes expected for less than half the time period
Winds: from the SSW (210 degrees) at 9 MPH (8 knots; 4.1 m/s)
Visibility: 4 miles (7 km)
Ceiling: 8000 feet AGL
Clouds: few clouds at 1600 feet AGL
scattered clouds at 1800 feet AGL
broken clouds at 8000 feet AGL
Weather: -TSRA  (light rain associated with thunderstorm(s))